createdAt,value
2023-04-30T18:00:04.667Z,50.94
2023-04-30T18:02:31.909Z,50.94
2023-04-30T18:04:58.370Z,51.02
2023-04-30T18:07:25.252Z,50.80
2023-04-30T18:09:52.011Z,50.83
2023-04-30T18:12:18.396Z,50.85
2023-04-30T18:14:48.170Z,50.70
2023-04-30T18:17:15.912Z,50.73
2023-04-30T18:19:47.944Z,50.69
2023-04-30T18:22:14.597Z,50.55
2023-04-30T18:24:43.503Z,50.55
2023-04-30T18:27:09.969Z,50.58
2023-04-30T18:29:37.044Z,50.60
2023-04-30T18:32:04.329Z,50.58
2023-04-30T18:34:31.591Z,50.60
2023-04-30T18:36:57.978Z,50.63
2023-04-30T18:39:24.398Z,50.60
2023-04-30T18:41:53.660Z,50.75
2023-04-30T18:44:30.902Z,50.62
2023-04-30T18:46:58.286Z,50.75
2023-04-30T18:49:24.662Z,50.79
2023-04-30T18:51:51.306Z,50.86
2023-04-30T18:54:17.821Z,50.94
2023-04-30T18:56:49.613Z,50.86
2023-04-30T18:59:16.467Z,50.82
2023-04-30T19:01:43.260Z,50.82
2023-04-30T19:04:13.035Z,50.76
2023-04-30T19:06:39.456Z,50.87
2023-04-30T19:09:05.945Z,50.88
2023-04-30T19:11:35.095Z,50.78
2023-04-30T19:14:02.320Z,50.76
2023-04-30T19:16:29.868Z,50.76
2023-04-30T19:18:57.166Z,50.88
2023-04-30T19:21:23.727Z,50.90
2023-04-30T19:23:52.618Z,51.04
2023-04-30T19:26:21.188Z,51.00
2023-04-30T19:28:50.435Z,51.00
2023-04-30T19:31:17.438Z,51.09
2023-04-30T19:33:44.742Z,51.18
2023-04-30T19:36:11.353Z,50.94
2023-04-30T19:38:37.908Z,51.10
2023-04-30T19:41:04.422Z,51.13
2023-04-30T19:43:31.032Z,51.09
2023-04-30T19:45:58.809Z,51.14
2023-04-30T19:48:42.361Z,51.32
2023-04-30T19:51:14.877Z,51.11
2023-04-30T19:53:46.037Z,51.28
2023-04-30T19:56:20.264Z,51.49
2023-04-30T19:58:47.933Z,51.47
2023-04-30T20:01:14.491Z,51.46
2023-04-30T20:03:42.341Z,51.38
2023-04-30T20:06:09.363Z,51.57
2023-04-30T20:08:38.655Z,51.39
2023-04-30T20:11:05.798Z,51.58
2023-04-30T20:13:32.285Z,51.70
2023-04-30T20:15:58.815Z,51.48
2023-04-30T20:18:26.689Z,51.80
2023-04-30T20:20:54.663Z,51.54
2023-04-30T20:23:21.792Z,51.83
2023-04-30T20:25:49.421Z,51.85
2023-04-30T20:28:17.729Z,52.00
2023-04-30T20:30:44.285Z,51.59
2023-04-30T20:33:19.910Z,52.26
2023-04-30T20:35:46.968Z,52.02
2023-04-30T20:38:15.185Z,52.15
2023-04-30T20:40:42.560Z,52.28
2023-04-30T20:43:12.247Z,52.08
2023-04-30T20:45:40.193Z,52.23
2023-04-30T20:48:09.292Z,52.19
2023-04-30T20:50:36.733Z,52.35
2023-04-30T20:53:03.839Z,52.34
2023-04-30T20:55:44.815Z,52.37
2023-04-30T20:58:11.732Z,52.38
2023-04-30T21:00:41.912Z,52.63
2023-04-30T21:03:11.007Z,52.39
2023-04-30T21:05:40.285Z,52.51
2023-04-30T21:08:06.727Z,52.47
2023-04-30T21:10:35.359Z,52.54
2023-04-30T21:13:04.485Z,52.38
2023-04-30T21:15:33.788Z,52.53
2023-04-30T21:18:05.368Z,52.59
2023-04-30T21:20:32.571Z,52.67
2023-04-30T21:23:04.989Z,52.80
2023-04-30T21:25:31.732Z,52.66
2023-04-30T21:27:58.736Z,52.62
2023-04-30T21:30:28.215Z,52.84
2023-04-30T21:32:59.469Z,52.88
2023-04-30T21:35:32.208Z,52.81
2023-04-30T21:38:04.933Z,52.83
2023-04-30T21:40:33.068Z,53.00
2023-04-30T21:43:00.660Z,53.00
2023-04-30T21:45:27.066Z,52.96
2023-04-30T21:47:56.538Z,53.15
2023-04-30T21:50:23.632Z,53.18
2023-04-30T21:52:50.923Z,53.41
2023-04-30T21:55:20.406Z,53.04
2023-04-30T21:57:46.947Z,53.24
2023-04-30T22:00:16.704Z,53.25
2023-04-30T22:02:43.215Z,53.35
2023-04-30T22:05:15.337Z,53.55
2023-04-30T22:07:41.828Z,53.40
2023-04-30T22:10:09.698Z,53.65
2023-04-30T22:12:40.854Z,53.56
2023-04-30T22:15:08.603Z,53.67
2023-04-30T22:17:36.236Z,53.65
2023-04-30T22:20:04.152Z,53.84
2023-04-30T22:22:31.026Z,53.63
2023-04-30T22:24:57.382Z,53.82
2023-04-30T22:27:23.821Z,53.75
2023-04-30T22:29:50.275Z,53.82
2023-04-30T22:32:19.322Z,53.88
2023-04-30T22:34:46.237Z,53.92
2023-04-30T22:37:14.145Z,54.06
2023-04-30T22:39:44.375Z,53.93
2023-04-30T22:42:10.855Z,54.00
2023-04-30T22:44:37.296Z,53.98
2023-04-30T22:47:05.313Z,54.00
2023-04-30T22:49:33.646Z,53.95
2023-04-30T22:52:00.885Z,53.97
2023-04-30T22:54:30.957Z,54.12
2023-04-30T22:56:57.855Z,54.27
2023-04-30T22:59:24.367Z,54.34
2023-04-30T23:01:51.559Z,54.29
2023-04-30T23:04:19.562Z,54.30
2023-04-30T23:06:46.047Z,54.43
2023-04-30T23:09:14.933Z,54.39
2023-04-30T23:11:44.375Z,54.43
2023-04-30T23:14:11.580Z,54.46
2023-04-30T23:16:41.935Z,54.52
2023-04-30T23:19:09.278Z,54.43
2023-04-30T23:21:35.740Z,54.59
2023-04-30T23:24:05.032Z,54.50
2023-04-30T23:26:34.756Z,54.55
2023-04-30T23:29:02.279Z,54.61
2023-04-30T23:31:31.516Z,54.67
2023-04-30T23:34:02.380Z,54.82
2023-04-30T23:36:30.616Z,54.82
2023-04-30T23:38:57.514Z,54.79
2023-04-30T23:41:25.436Z,54.83
2023-04-30T23:43:51.872Z,54.90
2023-04-30T23:46:18.775Z,54.94
2023-04-30T23:48:51.360Z,54.96
2023-04-30T23:51:21.897Z,54.90
2023-04-30T23:53:59.532Z,54.94
2023-04-30T23:56:26.424Z,55.08
2023-04-30T23:58:52.950Z,55.13
